createdAt,value
2018-12-20T00:00:15.994Z,100347.32
2018-12-20T00:02:43.563Z,100341.44
2018-12-20T00:05:11.192Z,100337.92
2018-12-20T00:07:38.687Z,100343.41
2018-12-20T00:10:06.414Z,100342.73
2018-12-20T00:12:34.023Z,100345.50
2018-12-20T00:15:01.795Z,100334.59
2018-12-20T00:17:50.500Z,100331.24
2018-12-20T00:20:18.084Z,100338.23
2018-12-20T00:22:45.650Z,100343.81
2018-12-20T00:25:13.219Z,100343.62
2018-12-20T00:27:40.869Z,100342.63
2018-12-20T00:30:08.374Z,100338.02
2018-12-20T00:32:35.850Z,100341.96
2018-12-20T00:35:03.368Z,100343.41
2018-12-20T00:37:30.899Z,100343.21
2018-12-20T00:40:06.270Z,100338.81
2018-12-20T00:42:28.655Z,100343.70
2018-12-20T00:44:56.140Z,100347.66
2018-12-20T00:47:23.605Z,100341.67
2018-12-20T00:49:51.209Z,100346.86
2018-12-20T00:52:18.740Z,100344.91
2018-12-20T00:54:46.177Z,100341.05
2018-12-20T00:57:13.748Z,100349.20
2018-12-20T00:59:41.459Z,100357.87
2018-12-20T01:02:09.070Z,100349.89
2018-12-20T01:04:36.633Z,100350.01
2018-12-20T01:07:04.221Z,100350.38
2018-12-20T01:09:31.815Z,100349.88
2018-12-20T01:11:59.390Z,100348.23
2018-12-20T01:14:26.999Z,100348.73
2018-12-20T01:16:54.442Z,100336.77
2018-12-20T01:19:21.936Z,100351.17
2018-12-20T01:21:49.681Z,100355.41
2018-12-20T01:24:17.242Z,100353.73
2018-12-20T01:26:44.753Z,100361.49
2018-12-20T01:29:12.264Z,100363.23
2018-12-20T01:31:39.705Z,100361.48
2018-12-20T01:34:07.213Z,100362.77
2018-12-20T01:36:34.843Z,100358.44
2018-12-20T01:39:02.888Z,100356.08
2018-12-20T01:41:30.320Z,100358.63
2018-12-20T01:43:57.824Z,100359.90
2018-12-20T01:46:25.496Z,100365.19
2018-12-20T01:48:53.067Z,100354.11
2018-12-20T01:51:20.690Z,100362.45
2018-12-20T01:53:48.522Z,100360.61
2018-12-20T01:56:16.149Z,100360.61
2018-12-20T01:58:43.835Z,100364.82
2018-12-20T02:01:11.619Z,100365.62
2018-12-20T02:03:39.140Z,100363.64
2018-12-20T02:06:06.585Z,100359.23
2018-12-20T02:08:34.072Z,100354.21
2018-12-20T02:11:01.566Z,100355.98
2018-12-20T02:13:29.079Z,100359.72
2018-12-20T02:15:56.580Z,100348.83
2018-12-20T02:18:24.125Z,100358.63
2018-12-20T02:20:51.718Z,100355.02
2018-12-20T02:23:19.410Z,100355.91
2018-12-20T02:25:46.984Z,100353.34
2018-12-20T02:28:14.530Z,100353.84
2018-12-20T02:30:42.078Z,100355.30
2018-12-20T02:33:09.540Z,100344.62
2018-12-20T02:35:37.064Z,100342.75
2018-12-20T02:38:04.885Z,100353.44
2018-12-20T02:40:32.477Z,100348.05
2018-12-20T02:43:00.179Z,100351.18
2018-12-20T02:45:27.783Z,100350.42
2018-12-20T02:47:55.448Z,100348.05
2018-12-20T02:50:22.953Z,100341.67
2018-12-20T02:52:50.515Z,100346.00
2018-12-20T02:55:18.362Z,100338.44
2018-12-20T02:57:46.182Z,100330.67
2018-12-20T03:00:13.767Z,100329.88
2018-12-20T03:02:41.458Z,100325.96
2018-12-20T03:05:08.970Z,100327.64
2018-12-20T03:07:36.462Z,100316.08
2018-12-20T03:10:03.957Z,100329.70
2018-12-20T03:12:31.524Z,100326.48
2018-12-20T03:14:59.081Z,100324.09
2018-12-20T03:17:26.528Z,100324.00
2018-12-20T03:19:53.988Z,100323.23
2018-12-20T03:22:21.670Z,100317.44
2018-12-20T03:24:49.227Z,100318.64
2018-12-20T03:27:16.748Z,100325.28
2018-12-20T03:29:44.387Z,100326.37
2018-12-20T03:32:12.241Z,100318.33
2018-12-20T03:34:39.896Z,100319.31
2018-12-20T03:37:07.448Z,100320.98
2018-12-20T03:39:34.896Z,100312.34
2018-12-20T03:42:02.413Z,100315.58
2018-12-20T03:44:30.019Z,100324.41
2018-12-20T03:46:57.570Z,100320.30
2018-12-20T03:49:25.192Z,100320.58
2018-12-20T03:51:52.895Z,100316.96
2018-12-20T03:54:20.441Z,100327.55
2018-12-20T03:56:48.055Z,100325.00
2018-12-20T03:59:15.941Z,100321.19
2018-12-20T04:01:43.473Z,100319.72
2018-12-20T04:04:10.954Z,100315.02
2018-12-20T04:06:38.452Z,100318.33
2018-12-20T04:09:06.237Z,100309.40
2018-12-20T04:11:33.778Z,100314.81
2018-12-20T04:14:01.425Z,100312.36
2018-12-20T04:16:28.904Z,100308.92
2018-12-20T04:18:56.601Z,100304.30
2018-12-20T04:21:24.113Z,100304.41
2018-12-20T04:23:51.825Z,100301.19
2018-12-20T04:26:19.475Z,100300.89
2018-12-20T04:28:47.045Z,100298.93
2018-12-20T04:31:14.887Z,100301.17
2018-12-20T04:33:42.701Z,100299.30
2018-12-20T04:36:10.322Z,100293.83
2018-12-20T04:38:38.047Z,100293.30
2018-12-20T04:41:05.685Z,100290.88
2018-12-20T04:43:33.233Z,100289.51
2018-12-20T04:46:00.731Z,100292.83
2018-12-20T04:48:28.263Z,100291.75
2018-12-20T04:50:55.727Z,100294.31
2018-12-20T04:53:23.173Z,100292.64
2018-12-20T04:55:50.645Z,100291.87
2018-12-20T04:58:18.120Z,100291.66
2018-12-20T05:00:46.252Z,100286.55
2018-12-20T05:03:13.940Z,100284.20
2018-12-20T05:05:41.397Z,100279.48
2018-12-20T05:08:08.941Z,100276.94
2018-12-20T05:10:36.464Z,100270.27
2018-12-20T05:13:03.897Z,100279.77
2018-12-20T05:15:31.347Z,100288.42
2018-12-20T05:17:58.846Z,100278.31
2018-12-20T05:20:26.317Z,100280.20
2018-12-20T05:22:53.885Z,100280.97
2018-12-20T05:25:21.414Z,100277.23
2018-12-20T05:27:49.081Z,100275.09
2018-12-20T05:30:16.679Z,100280.46
2018-12-20T05:32:44.347Z,100286.23
2018-12-20T05:35:12.142Z,100286.34
2018-12-20T05:37:39.896Z,100286.84
2018-12-20T05:40:07.520Z,100290.75
2018-12-20T05:42:35.011Z,100289.67
2018-12-20T05:45:02.520Z,100296.92
2018-12-20T05:47:30.158Z,100311.83
2018-12-20T05:49:57.682Z,100313.88
2018-12-20T05:52:25.125Z,100318.20
2018-12-20T05:54:52.556Z,100320.44
2018-12-20T05:57:20.017Z,100319.98
2018-12-20T05:59:47.483Z,100321.55
2018-12-20T06:02:15.015Z,100324.10
2018-12-20T06:04:42.763Z,100322.22
2018-12-20T06:07:10.327Z,100320.86
2018-12-20T06:09:37.904Z,100318.70
2018-12-20T06:12:05.614Z,100315.54
2018-12-20T06:14:33.248Z,100318.89
2018-12-20T06:17:00.904Z,100313.19
2018-12-20T06:19:28.658Z,100316.81
2018-12-20T06:21:56.116Z,100307.51
2018-12-20T06:24:23.563Z,100305.70
2018-12-20T06:26:50.996Z,100307.78
2018-12-20T06:29:18.436Z,100307.90
2018-12-20T06:31:45.874Z,100308.36
2018-12-20T06:34:13.309Z,100304.73
2018-12-20T06:36:40.770Z,100316.77
2018-12-20T06:39:08.213Z,100310.48
2018-12-20T06:41:35.637Z,100308.44
2018-12-20T06:44:07.136Z,100308.75
2018-12-20T06:46:32.502Z,100314.92
2018-12-20T06:48:59.954Z,100308.48
2018-12-20T06:51:27.389Z,100306.50
2018-12-20T06:53:54.913Z,100301.61
2018-12-20T06:56:22.353Z,100307.09
2018-12-20T06:58:49.792Z,100309.36
2018-12-20T07:01:17.240Z,100303.84
2018-12-20T07:03:44.683Z,100305.93
2018-12-20T07:06:12.117Z,100311.60
2018-12-20T07:08:39.564Z,100304.23
2018-12-20T07:11:06.999Z,100306.31
2018-12-20T07:13:34.439Z,100308.36
2018-12-20T07:16:01.872Z,100296.20
2018-12-20T07:18:29.396Z,100309.06
2018-12-20T07:20:56.834Z,100318.13
2018-12-20T07:23:24.271Z,100320.02
2018-12-20T07:25:51.717Z,100320.41
2018-12-20T07:28:19.164Z,100314.34
2018-12-20T07:30:46.609Z,100323.27
2018-12-20T07:33:14.048Z,100321.02
2018-12-20T07:35:41.485Z,100317.20
2018-12-20T07:38:08.941Z,100324.52
2018-12-20T07:40:38.159Z,100318.72
2018-12-20T07:43:05.727Z,100315.48
2018-12-20T07:45:33.154Z,100314.48
2018-12-20T07:48:00.632Z,100311.77
2018-12-20T07:50:28.080Z,100322.82
2018-12-20T07:52:55.532Z,100328.34
2018-12-20T07:55:22.989Z,100320.91
2018-12-20T07:57:50.438Z,100322.04
2018-12-20T08:00:17.885Z,100316.64
2018-12-20T08:02:45.333Z,100320.50
2018-12-20T08:05:12.781Z,100319.60
2018-12-20T08:07:40.221Z,100321.85
2018-12-20T08:10:07.680Z,100324.91
2018-12-20T08:12:35.108Z,100319.78
2018-12-20T08:15:02.559Z,100321.94
2018-12-20T08:17:29.993Z,100322.13
2018-12-20T08:19:57.446Z,100321.36
2018-12-20T08:22:24.888Z,100326.34
2018-12-20T08:24:52.329Z,100330.36
2018-12-20T08:27:19.823Z,100334.30
2018-12-20T08:29:47.383Z,100329.36
2018-12-20T08:32:14.892Z,100337.62
2018-12-20T08:34:42.336Z,100331.75
2018-12-20T08:37:09.801Z,100330.09
2018-12-20T08:39:37.239Z,100332.72
2018-12-20T08:42:04.696Z,100329.70
2018-12-20T08:44:32.132Z,100330.59
2018-12-20T08:46:59.577Z,100333.71
2018-12-20T08:49:27.013Z,100331.38
2018-12-20T08:51:54.452Z,100336.09
2018-12-20T08:54:21.892Z,100331.08
2018-12-20T08:56:49.328Z,100336.86
2018-12-20T08:59:16.782Z,100341.66
2018-12-20T09:01:44.212Z,100347.06
2018-12-20T09:04:11.669Z,100346.18
2018-12-20T09:06:39.106Z,100342.77
2018-12-20T09:09:06.544Z,100347.35
2018-12-20T09:11:33.986Z,100346.20
2018-12-20T09:14:01.438Z,100342.37
2018-12-20T09:16:28.868Z,100339.52
2018-12-20T09:18:56.366Z,100337.16
2018-12-20T09:21:23.855Z,100342.66
2018-12-20T09:23:51.285Z,100342.16
2018-12-20T09:26:18.729Z,100333.73
2018-12-20T09:28:46.169Z,100341.39
2018-12-20T09:31:13.609Z,100337.84
2018-12-20T09:33:41.056Z,100342.86
2018-12-20T09:36:08.496Z,100338.06
2018-12-20T09:38:35.965Z,100335.20
2018-12-20T09:41:03.439Z,100342.95
2018-12-20T09:43:30.933Z,100331.39
2018-12-20T09:45:58.368Z,100335.41
2018-12-20T09:48:25.804Z,100331.98
2018-12-20T09:50:53.257Z,100330.40
2018-12-20T09:53:20.717Z,100333.25
2018-12-20T09:55:48.156Z,100327.55
2018-12-20T09:58:15.602Z,100328.64
2018-12-20T10:00:43.045Z,100328.44
2018-12-20T10:03:10.475Z,100315.00
2018-12-20T10:05:37.940Z,100324.80
2018-12-20T10:08:05.372Z,100317.73
2018-12-20T10:10:32.831Z,100321.38
2018-12-20T10:13:00.282Z,100321.17
2018-12-20T10:15:27.731Z,100314.89
2018-12-20T10:17:55.169Z,100312.83
2018-12-20T10:20:22.604Z,100302.98
2018-12-20T10:22:50.045Z,100304.77
2018-12-20T10:25:17.484Z,100302.31
2018-12-20T10:27:44.924Z,100300.63
2018-12-20T10:30:12.360Z,100300.23
2018-12-20T10:32:39.796Z,100297.39
2018-12-20T10:35:07.232Z,100291.61
2018-12-20T10:37:34.668Z,100285.81
2018-12-20T10:40:02.121Z,100286.30
2018-12-20T10:42:29.557Z,100278.05
2018-12-20T10:44:57.010Z,100284.61
2018-12-20T10:47:29.144Z,100280.21
2018-12-20T10:49:55.156Z,100280.28
2018-12-20T10:52:22.593Z,100276.95
2018-12-20T10:54:50.038Z,100269.77
2018-12-20T10:57:17.473Z,100263.77
2018-12-20T10:59:44.921Z,100259.44
2018-12-20T11:02:17.737Z,100265.33
2018-12-20T11:04:50.583Z,100262.17
2018-12-20T11:07:23.404Z,100259.36
2018-12-20T11:09:56.261Z,100251.87
2018-12-20T11:12:29.312Z,100247.70
2018-12-20T11:14:56.760Z,100250.99
2018-12-20T11:17:24.193Z,100253.53
2018-12-20T11:19:51.645Z,100248.03
2018-12-20T11:22:19.080Z,100247.48
2018-12-20T11:24:46.526Z,100251.25
2018-12-20T11:27:14.020Z,100244.22
2018-12-20T11:29:41.492Z,100243.58
2018-12-20T11:32:08.949Z,100244.86
2018-12-20T11:34:36.404Z,100231.79
2018-12-20T11:37:03.841Z,100234.81
2018-12-20T11:39:31.289Z,100230.98
2018-12-20T11:41:58.749Z,100233.93
2018-12-20T11:44:26.265Z,100237.91
2018-12-20T11:46:53.700Z,100235.28
2018-12-20T11:49:21.152Z,100234.16
2018-12-20T11:51:48.605Z,100232.88
2018-12-20T11:54:16.024Z,100235.82
2018-12-20T11:56:43.532Z,100232.31
2018-12-20T11:59:10.976Z,100231.42
2018-12-20T12:01:38.428Z,100231.50
2018-12-20T12:04:05.940Z,100226.24
2018-12-20T12:06:33.381Z,100229.65
2018-12-20T12:09:00.823Z,100220.53
2018-12-20T12:11:28.264Z,100208.30
2018-12-20T12:13:55.704Z,100223.89
2018-12-20T12:16:23.149Z,100223.46
2018-12-20T12:18:50.582Z,100222.39
2018-12-20T12:21:18.035Z,100214.23
2018-12-20T12:23:45.491Z,100220.45
2018-12-20T12:26:12.929Z,100217.81
2018-12-20T12:28:40.368Z,100220.86
2018-12-20T12:31:07.809Z,100220.80
2018-12-20T12:33:35.261Z,100222.80
2018-12-20T12:36:02.708Z,100222.72
2018-12-20T12:38:30.146Z,100216.86
2018-12-20T12:40:57.608Z,100220.56
2018-12-20T12:43:25.060Z,100224.56
2018-12-20T12:45:52.505Z,100227.67
2018-12-20T12:48:19.938Z,100230.81
2018-12-20T12:50:47.391Z,100226.27
2018-12-20T12:53:14.845Z,100225.67
2018-12-20T12:55:42.293Z,100222.66
2018-12-20T12:58:09.772Z,100221.31
2018-12-20T13:00:37.220Z,100228.03
2018-12-20T13:03:04.668Z,100227.95
2018-12-20T13:05:32.114Z,100235.27
2018-12-20T13:07:59.553Z,100229.73
2018-12-20T13:10:26.991Z,100230.89
2018-12-20T13:12:54.444Z,100243.13
2018-12-20T13:15:21.895Z,100230.23
2018-12-20T13:17:49.321Z,100231.90
2018-12-20T13:20:16.769Z,100238.61
2018-12-20T13:22:44.220Z,100236.28
2018-12-20T13:25:11.705Z,100231.40
2018-12-20T13:27:39.173Z,100236.41
2018-12-20T13:30:06.618Z,100230.67
2018-12-20T13:32:34.066Z,100236.45
2018-12-20T13:35:01.517Z,100232.88
2018-12-20T13:37:29.032Z,100230.84
2018-12-20T13:39:56.468Z,100234.72
2018-12-20T13:42:23.916Z,100236.22
2018-12-20T13:44:51.360Z,100236.33
2018-12-20T13:47:18.876Z,100234.84
2018-12-20T13:49:46.523Z,100236.27
2018-12-20T13:52:13.972Z,100234.72
2018-12-20T13:54:41.414Z,100237.28
2018-12-20T13:57:08.852Z,100243.63
2018-12-20T13:59:36.298Z,100249.72
2018-12-20T14:02:03.749Z,100244.12
2018-12-20T14:04:31.188Z,100243.63
2018-12-20T14:06:58.644Z,100237.13
2018-12-20T14:09:27.045Z,100246.63
2018-12-20T14:11:54.530Z,100252.89
2018-12-20T14:14:21.984Z,100248.52
2018-12-20T14:16:49.421Z,100252.97
2018-12-20T14:19:17.104Z,100254.56
2018-12-20T14:21:44.540Z,100255.52
2018-12-20T14:24:11.990Z,100247.13
2018-12-20T14:26:39.436Z,100250.95
2018-12-20T14:29:06.868Z,100244.81
2018-12-20T14:31:34.393Z,100250.30
2018-12-20T14:34:01.837Z,100241.64
2018-12-20T14:36:29.307Z,100242.30
2018-12-20T14:38:56.790Z,100240.31
2018-12-20T14:41:24.240Z,100245.65
2018-12-20T14:43:51.694Z,100253.04
2018-12-20T14:46:19.136Z,100250.37
2018-12-20T14:48:46.598Z,100253.58
2018-12-20T14:51:14.029Z,100257.52
2018-12-20T14:53:41.477Z,100259.47
2018-12-20T14:56:08.925Z,100258.59
2018-12-20T14:58:36.360Z,100252.87
2018-12-20T15:01:03.823Z,100251.09
2018-12-20T15:03:31.874Z,100254.83
2018-12-20T15:05:59.319Z,100256.98
2018-12-20T15:08:26.759Z,100251.88
2018-12-20T15:10:54.196Z,100260.70
2018-12-20T15:13:21.633Z,100255.25
2018-12-20T15:15:49.072Z,100255.86
2018-12-20T15:18:16.520Z,100258.20
2018-12-20T15:20:44.040Z,100258.27
2018-12-20T15:23:11.484Z,100260.41
2018-12-20T15:25:39.071Z,100260.98
2018-12-20T15:28:06.512Z,100260.75
2018-12-20T15:30:33.948Z,100263.41
2018-12-20T15:33:01.404Z,100264.20
2018-12-20T15:35:28.898Z,100268.59
2018-12-20T15:37:56.336Z,100268.25
2018-12-20T15:40:23.777Z,100268.47
2018-12-20T15:42:51.229Z,100269.46
2018-12-20T15:45:18.846Z,100271.20
2018-12-20T15:47:46.353Z,100273.39
2018-12-20T15:50:13.778Z,100282.90
2018-12-20T15:52:41.229Z,100279.73
2018-12-20T15:55:08.669Z,100285.72
2018-12-20T15:57:36.109Z,100281.89
2018-12-20T16:00:03.562Z,100275.55
2018-12-20T16:02:31.001Z,100277.39
2018-12-20T16:04:58.438Z,100281.62
2018-12-20T16:07:25.880Z,100284.34
2018-12-20T16:09:53.336Z,100282.77
2018-12-20T16:12:20.774Z,100285.06
2018-12-20T16:14:48.216Z,100275.11
2018-12-20T16:17:15.660Z,100284.63
2018-12-20T16:19:43.100Z,100281.34
2018-12-20T16:22:10.548Z,100289.39
2018-12-20T16:24:38.002Z,100293.29
2018-12-20T16:27:05.448Z,100297.62
2018-12-20T16:29:32.883Z,100293.73
2018-12-20T16:32:00.329Z,100297.05
2018-12-20T16:34:27.773Z,100294.91
2018-12-20T16:36:55.219Z,100293.24
2018-12-20T16:39:22.700Z,100296.86
2018-12-20T16:41:50.148Z,100297.84
2018-12-20T16:44:17.594Z,100301.34
2018-12-20T16:46:45.097Z,100301.30
2018-12-20T16:49:13.777Z,100299.36
2018-12-20T16:51:41.557Z,100305.07
2018-12-20T16:54:09.004Z,100304.23
2018-12-20T16:56:36.436Z,100302.95
2018-12-20T16:59:03.878Z,100304.28
2018-12-20T17:01:31.328Z,100299.73
2018-12-20T17:03:58.772Z,100302.91
2018-12-20T17:06:26.215Z,100305.02
2018-12-20T17:08:53.725Z,100301.92
2018-12-20T17:11:21.164Z,100307.69
2018-12-20T17:13:48.603Z,100310.08
2018-12-20T17:16:16.043Z,100302.91
2018-12-20T17:18:43.489Z,100305.85
2018-12-20T17:21:10.976Z,100301.63
2018-12-20T17:23:38.420Z,100302.41
2018-12-20T17:26:05.928Z,100298.80
2018-12-20T17:28:33.369Z,100303.96
2018-12-20T17:31:00.834Z,100304.03
2018-12-20T17:33:28.276Z,100308.69
2018-12-20T17:35:55.880Z,100299.97
2018-12-20T17:38:23.316Z,100301.23
2018-12-20T17:40:50.761Z,100303.57
2018-12-20T17:43:18.205Z,100301.58
2018-12-20T17:45:45.632Z,100305.09
2018-12-20T17:48:13.123Z,100298.70
2018-12-20T17:50:40.535Z,100303.24
2018-12-20T17:53:07.971Z,100297.41
2018-12-20T17:55:35.425Z,100298.80
2018-12-20T17:58:02.861Z,100292.63
2018-12-20T18:00:30.307Z,100301.95
2018-12-20T18:02:57.765Z,100299.20
2018-12-20T18:05:25.201Z,100293.83
2018-12-20T18:07:52.648Z,100297.06
2018-12-20T18:10:20.076Z,100297.23
2018-12-20T18:12:47.516Z,100305.09
2018-12-20T18:15:14.961Z,100313.89
2018-12-20T18:17:42.437Z,100303.44
2018-12-20T18:20:09.895Z,100315.58
2018-12-20T18:22:37.332Z,100305.32
2018-12-20T18:25:04.771Z,100309.47
2018-12-20T18:27:32.225Z,100307.40
2018-12-20T18:29:59.664Z,100309.84
2018-12-20T18:32:27.123Z,100308.30
2018-12-20T18:34:54.676Z,100302.84
2018-12-20T18:37:22.120Z,100306.67
2018-12-20T18:39:49.579Z,100314.42
2018-12-20T18:42:17.032Z,100313.66
2018-12-20T18:44:44.524Z,100308.30
2018-12-20T18:47:11.960Z,100313.56
2018-12-20T18:49:47.322Z,100318.86
2018-12-20T18:52:08.848Z,100317.56
2018-12-20T18:54:36.288Z,100326.71
2018-12-20T18:57:03.731Z,100312.79
2018-12-20T18:59:31.260Z,100314.05
2018-12-20T19:01:58.704Z,100313.67
2018-12-20T19:04:26.153Z,100317.89
2018-12-20T19:06:53.592Z,100320.08
2018-12-20T19:09:21.097Z,100321.52
2018-12-20T19:11:48.541Z,100322.73
2018-12-20T19:14:16.358Z,100323.15
2018-12-20T19:16:44.009Z,100321.13
2018-12-20T19:19:11.460Z,100318.98
2018-12-20T19:21:38.984Z,100324.27
2018-12-20T19:24:06.512Z,100316.36
2018-12-20T19:26:33.961Z,100323.28
2018-12-20T19:29:01.409Z,100328.53
2018-12-20T19:31:28.840Z,100328.11
2018-12-20T19:33:56.285Z,100326.34
2018-12-20T19:36:23.737Z,100319.45
2018-12-20T19:38:51.200Z,100324.43
2018-12-20T19:41:18.650Z,100325.94
2018-12-20T19:43:46.092Z,100320.73
2018-12-20T19:46:13.525Z,100321.38
2018-12-20T19:48:40.964Z,100329.27
2018-12-20T19:51:08.418Z,100316.66
2018-12-20T19:53:35.868Z,100319.47
2018-12-20T19:56:03.312Z,100322.99
2018-12-20T19:58:30.760Z,100324.54
2018-12-20T20:00:58.213Z,100328.80
2018-12-20T20:03:25.683Z,100326.17
2018-12-20T20:05:53.125Z,100321.22
2018-12-20T20:08:20.572Z,100319.62
2018-12-20T20:10:48.017Z,100323.20
2018-12-20T20:13:19.212Z,100324.54
2018-12-20T20:15:44.888Z,100321.84
2018-12-20T20:18:12.339Z,100319.84
2018-12-20T20:20:39.776Z,100332.81
2018-12-20T20:23:07.227Z,100330.61
2018-12-20T20:25:34.672Z,100327.12
2018-12-20T20:28:02.112Z,100333.52
2018-12-20T20:30:29.544Z,100326.71
2018-12-20T20:32:56.986Z,100324.22
2018-12-20T20:35:24.425Z,100319.73
2018-12-20T20:37:51.867Z,100323.68
2018-12-20T20:40:19.305Z,100327.55
2018-12-20T20:42:46.812Z,100321.90
2018-12-20T20:45:14.230Z,100319.25
2018-12-20T20:47:41.659Z,100315.89
2018-12-20T20:50:09.098Z,100317.33
2018-12-20T20:52:36.569Z,100320.28
2018-12-20T20:55:05.758Z,100315.41
2018-12-20T20:57:33.331Z,100317.88
2018-12-20T21:00:00.778Z,100305.31
2018-12-20T21:02:28.214Z,100311.08
2018-12-20T21:04:55.644Z,100314.42
2018-12-20T21:07:23.088Z,100309.64
2018-12-20T21:09:50.526Z,100313.62
2018-12-20T21:12:22.769Z,100299.54
2018-12-20T21:14:52.430Z,100304.82
2018-12-20T21:17:16.817Z,100309.80
2018-12-20T21:19:44.264Z,100309.95
2018-12-20T21:22:11.792Z,100305.00
2018-12-20T21:24:39.231Z,100310.44
2018-12-20T21:27:06.677Z,100309.48
2018-12-20T21:29:34.111Z,100324.77
2018-12-20T21:32:01.548Z,100316.19
2018-12-20T21:34:28.998Z,100322.74
2018-12-20T21:36:56.428Z,100331.42
2018-12-20T21:39:23.865Z,100323.09
2018-12-20T21:41:51.307Z,100321.02
2018-12-20T21:44:18.747Z,100330.13
2018-12-20T21:46:46.189Z,100319.73
2018-12-20T21:49:13.635Z,100324.91
2018-12-20T21:51:41.084Z,100319.55
2018-12-20T21:54:08.512Z,100320.05
2018-12-20T21:56:35.992Z,100320.14
2018-12-20T21:59:03.428Z,100316.54
2018-12-20T22:01:30.912Z,100323.09
2018-12-20T22:03:58.344Z,100320.05
2018-12-20T22:06:25.793Z,100323.17
2018-12-20T22:08:53.236Z,100318.98
2018-12-20T22:11:20.676Z,100328.69
2018-12-20T22:13:48.116Z,100321.44
2018-12-20T22:16:15.555Z,100322.97
2018-12-20T22:18:43.001Z,100315.86
2018-12-20T22:21:10.428Z,100321.13
2018-12-20T22:23:37.881Z,100321.59
2018-12-20T22:26:05.324Z,100320.64
2018-12-20T22:28:32.768Z,100327.95
2018-12-20T22:31:00.209Z,100325.88
2018-12-20T22:33:27.644Z,100324.20
2018-12-20T22:35:55.075Z,100319.87
2018-12-20T22:38:22.583Z,100318.50
2018-12-20T22:40:50.021Z,100321.78
2018-12-20T22:43:17.453Z,100323.85
2018-12-20T22:45:44.911Z,100321.45
2018-12-20T22:48:12.341Z,100317.95
2018-12-20T22:50:39.797Z,100313.56
2018-12-20T22:53:07.309Z,100314.52
2018-12-20T22:55:34.741Z,100318.91
2018-12-20T22:58:02.189Z,100311.17
2018-12-20T23:00:29.632Z,100316.35
2018-12-20T23:02:57.060Z,100313.33
2018-12-20T23:05:24.517Z,100311.72
2018-12-20T23:07:51.936Z,100315.89
2018-12-20T23:10:19.374Z,100317.80
2018-12-20T23:12:46.806Z,100310.02
2018-12-20T23:15:14.241Z,100309.06
2018-12-20T23:17:41.671Z,100303.51
2018-12-20T23:20:09.117Z,100299.80
2018-12-20T23:22:36.540Z,100296.50
2018-12-20T23:25:04.052Z,100296.42
2018-12-20T23:27:31.485Z,100293.51
2018-12-20T23:29:58.928Z,100289.47
2018-12-20T23:32:26.364Z,100288.30
2018-12-20T23:34:53.802Z,100290.52
2018-12-20T23:37:21.227Z,100278.77
2018-12-20T23:39:48.660Z,100282.73
2018-12-20T23:42:16.148Z,100283.25
2018-12-20T23:44:43.580Z,100290.20
2018-12-20T23:47:11.012Z,100282.42
2018-12-20T23:49:38.687Z,100273.59
2018-12-20T23:52:06.197Z,100291.06
2018-12-20T23:54:33.628Z,100281.63
2018-12-20T23:57:01.064Z,100278.60
2018-12-20T23:59:28.499Z,100281.17
